createdAt,value
2022-08-28T00:04:52.739Z,2.889
2022-08-28T00:14:44.254Z,2.9182
2022-08-28T00:51:19.174Z,2.9182
2022-08-28T01:02:24.742Z,2.9182
2022-08-28T01:13:41.620Z,2.9182
2022-08-28T01:25:14.980Z,2.9182
2022-08-28T01:48:57.695Z,2.9182
2022-08-28T02:26:21.144Z,2.9182
2022-08-28T04:51:10.252Z,2.9182
2022-08-28T05:08:07.837Z,2.9182
2022-08-28T05:25:25.802Z,2.928
2022-08-28T05:30:41.646Z,2.967
2022-08-28T05:35:57.451Z,2.8987
2022-08-28T05:55:12.288Z,2.928
2022-08-28T06:00:27.987Z,2.9866
2022-08-28T06:05:43.676Z,2.9426
2022-08-28T06:11:00.218Z,3.011
2022-08-28T06:16:16.360Z,2.9719
2022-08-28T06:21:32.436Z,3.0354
2022-08-28T06:26:47.385Z,3.0158
2022-08-28T06:32:02.853Z,3.011
2022-08-28T06:37:18.116Z,3.0207
2022-08-28T06:42:33.429Z,3.0305
2022-08-28T06:47:55.756Z,3.0549
2022-08-28T06:53:12.308Z,3.0695
2022-08-28T06:58:27.116Z,3.089
2022-08-28T07:03:45.417Z,3.1232
2022-08-28T07:09:00.914Z,3.1427
2022-08-28T07:14:14.917Z,3.172
2022-08-28T07:19:28.776Z,3.1964
2022-08-28T07:24:42.618Z,3.2208
2022-08-28T07:29:55.923Z,3.2501
2022-08-28T07:35:09.788Z,3.2794
2022-08-28T07:40:23.472Z,3.3184
2022-08-28T07:45:36.632Z,3.3282
2022-08-28T07:50:49.478Z,3.3526
2022-08-28T07:56:02.289Z,3.377
2022-08-28T08:01:15.679Z,3.4014
2022-08-28T08:06:35.117Z,3.416
2022-08-28T08:11:52.239Z,3.4258
2022-08-28T08:17:08.471Z,3.4453
2022-08-28T08:22:22.662Z,3.4648
2022-08-28T08:27:35.157Z,3.4648
2022-08-28T08:32:48.191Z,3.4697
2022-08-28T08:38:14.481Z,3.4794
2022-08-28T08:43:24.307Z,3.4746
2022-08-28T08:48:36.719Z,3.4746
2022-08-28T08:53:49.045Z,3.4941
2022-08-28T08:59:01.355Z,3.4892
2022-08-28T09:04:22.587Z,3.499
2022-08-28T09:09:32.777Z,3.5136
2022-08-28T09:14:45.300Z,3.5234
2022-08-28T09:19:57.708Z,3.5282
2022-08-28T09:25:15.221Z,3.5282
2022-08-28T09:30:32.108Z,3.5429
2022-08-28T09:35:44.690Z,3.5429
2022-08-28T09:40:57.176Z,3.5478
2022-08-28T09:46:09.935Z,3.5526
2022-08-28T09:51:22.135Z,3.5624
2022-08-28T09:56:34.616Z,3.5722
2022-08-28T10:01:47.312Z,3.577
2022-08-28T10:06:59.606Z,3.5819
2022-08-28T10:12:11.866Z,3.577
2022-08-28T10:17:24.257Z,3.5819
2022-08-28T10:22:36.509Z,3.5819
2022-08-28T10:27:49.106Z,3.5819
2022-08-28T10:33:01.739Z,3.5722
2022-08-28T10:38:14.896Z,3.577
2022-08-28T10:43:27.137Z,3.577
2022-08-28T10:48:39.738Z,3.577
2022-08-28T10:53:52.117Z,3.5819
2022-08-28T10:59:04.627Z,3.5819
2022-08-28T11:04:26.671Z,3.5819
2022-08-28T11:09:36.755Z,3.5868
2022-08-28T11:14:49.959Z,3.5868
2022-08-28T11:20:02.424Z,3.5917
2022-08-28T11:25:15.344Z,3.6502
2022-08-28T11:30:29.778Z,3.6454
2022-08-28T11:51:12.934Z,3.6454
2022-08-28T11:56:33.095Z,3.6454
2022-08-28T12:01:49.323Z,3.6502
2022-08-28T12:07:01.605Z,3.6502
2022-08-28T12:12:14.045Z,3.6551
2022-08-28T12:17:32.310Z,3.6502
2022-08-28T12:22:45.520Z,3.6551
2022-08-28T12:27:58.054Z,3.66
2022-08-28T12:33:10.495Z,3.6551
2022-08-28T12:48:44.154Z,3.6795
2022-08-28T12:53:56.705Z,3.6746
2022-08-28T12:59:09.390Z,3.6893
2022-08-28T13:04:24.045Z,3.6942
2022-08-28T13:09:35.954Z,3.7088
2022-08-28T13:14:48.719Z,3.7234
2022-08-28T13:20:01.286Z,3.7283
2022-08-28T13:25:17.727Z,3.7381
2022-08-28T13:35:39.672Z,3.7527
2022-08-28T13:46:02.678Z,3.7625
2022-08-28T13:51:22.780Z,3.7527
2022-08-28T13:56:38.170Z,3.7527
2022-08-28T14:01:51.904Z,3.7527
2022-08-28T14:07:04.882Z,3.7527
2022-08-28T14:12:17.359Z,3.7527
2022-08-28T14:17:29.792Z,3.7576
2022-08-28T14:22:42.398Z,3.7576
2022-08-28T14:27:54.537Z,3.7674
2022-08-28T14:33:07.277Z,3.7771
2022-08-28T14:38:20.519Z,3.7869
2022-08-28T14:48:43.786Z,3.8162
2022-08-28T14:53:55.848Z,3.8308
2022-08-28T14:59:24.913Z,3.8259
2022-08-28T15:04:34.650Z,3.8308
2022-08-28T15:09:46.865Z,3.8406
2022-08-28T15:14:59.189Z,3.8357
2022-08-28T15:30:31.480Z,3.8259
2022-08-28T15:46:04.019Z,3.8308
2022-08-28T15:51:17.227Z,3.8357
2022-08-28T15:56:29.250Z,3.8357
2022-08-28T16:12:02.451Z,3.865
2022-08-28T16:22:25.483Z,3.865
2022-08-28T16:27:37.682Z,3.865
2022-08-28T16:32:55.004Z,3.8552
2022-08-28T16:38:06.959Z,3.8552
2022-08-28T16:43:19.434Z,3.865
2022-08-28T16:48:32.052Z,3.8698
2022-08-28T16:53:45.285Z,3.8698
2022-08-28T16:58:57.450Z,3.8698
2022-08-28T17:09:24.325Z,3.8698
2022-08-28T17:19:49.248Z,3.8698
2022-08-28T17:25:01.595Z,3.8698
2022-08-28T17:30:14.082Z,3.865
2022-08-28T17:35:26.357Z,3.865
2022-08-28T17:40:39.115Z,3.8698
2022-08-28T17:45:51.226Z,3.8552
2022-08-28T17:51:03.354Z,3.865
2022-08-28T17:56:15.529Z,3.8503
2022-08-28T18:01:28.182Z,3.8503
2022-08-28T18:11:50.199Z,3.8552
2022-08-28T18:17:02.841Z,3.8454
2022-08-28T18:22:17.280Z,3.8454
2022-08-28T18:27:29.028Z,3.8503
2022-08-28T18:32:43.441Z,3.8454
2022-08-28T18:37:55.129Z,3.8406
2022-08-28T18:43:07.377Z,3.8406
2022-08-28T18:48:19.607Z,3.8406
2022-08-28T18:53:44.135Z,3.8357
2022-08-28T18:58:55.675Z,3.8357
2022-08-28T19:04:08.715Z,3.8406
2022-08-28T19:09:21.877Z,3.8357
2022-08-28T19:14:34.572Z,3.8357
2022-08-28T19:19:47.875Z,3.8308
2022-08-28T19:25:00.195Z,3.8308
2022-08-28T19:30:12.719Z,3.8259
2022-08-28T19:35:26.357Z,3.8259
2022-08-28T19:40:39.304Z,3.8259
2022-08-28T19:45:51.622Z,3.8259
2022-08-28T19:51:24.596Z,3.8259
2022-08-28T19:56:33.264Z,3.8162
2022-08-28T20:01:46.006Z,3.8162
2022-08-28T20:06:59.046Z,3.8162
2022-08-28T20:12:10.923Z,3.8162
2022-08-28T20:17:23.345Z,3.8162
2022-08-28T20:22:42.046Z,3.8113
2022-08-28T20:28:02.535Z,3.8113
2022-08-28T20:33:20.376Z,3.8113
2022-08-28T20:38:34.865Z,3.8064
2022-08-28T20:43:47.486Z,3.8064
2022-08-28T20:48:59.655Z,3.8064
2022-08-28T20:54:12.076Z,3.7966
2022-08-28T20:59:40.742Z,3.7918
2022-08-28T21:04:50.250Z,3.7918
2022-08-28T21:10:09.264Z,3.7918
2022-08-28T21:15:22.396Z,3.7869
2022-08-28T21:20:34.944Z,3.7869
2022-08-28T21:25:47.839Z,3.7869
2022-08-28T21:31:00.998Z,3.782
2022-08-28T21:36:13.194Z,3.782
2022-08-28T21:41:25.804Z,3.782
2022-08-28T21:46:38.388Z,3.7771
2022-08-28T21:51:50.737Z,3.7771
2022-08-28T21:57:03.169Z,3.7722
2022-08-28T22:02:15.804Z,3.7722
2022-08-28T22:07:28.290Z,3.7674
2022-08-28T22:12:40.706Z,3.7674
2022-08-28T22:17:53.278Z,3.7674
2022-08-28T22:23:05.707Z,3.7625
2022-08-28T22:28:17.947Z,3.7625
2022-08-28T22:33:30.617Z,3.7576
2022-08-28T22:38:54.457Z,3.7625
2022-08-28T22:44:04.239Z,3.7527
2022-08-28T22:49:16.540Z,3.7576
2022-08-28T22:54:28.998Z,3.7478
2022-08-28T22:59:41.139Z,3.7527
2022-08-28T23:04:53.612Z,3.7478
2022-08-28T23:10:05.916Z,3.7478
2022-08-28T23:15:18.114Z,3.7381
2022-08-28T23:20:30.213Z,3.7478
2022-08-28T23:25:42.260Z,3.7332
2022-08-28T23:30:54.436Z,3.7332
2022-08-28T23:36:06.854Z,3.7332
2022-08-28T23:41:22.321Z,3.7234
2022-08-28T23:46:33.437Z,3.7234
2022-08-28T23:51:47.276Z,3.7186
2022-08-28T23:56:59.830Z,3.7186
